ADDS - METARS form results

Aviation Digital Data Service (ADDS)

Output produced by METARs form (1532 UTC 30 September 2022)
found at http://aviationweather.gov/metar/data/
 
METAR text: KC09 301515Z AUTO 20003KT 10SM CLR 15/09 A3033 RMK AO2 T01490087
Conditions at: KC09 (MORRIS-WASHBURN , IL, US) observed 1515 UTC 30 September 2022
Temperature: 14.9°C (59°F)
Dewpoint: 8.7°C (48°F) [RH = 66%]
Pressure (altimeter): 30.33 inches Hg (1027.2 mb)
Winds: from the SSW (200 degrees) at 3 MPH (3 knots; 1.5 m/s)
Visibility: 10 or more miles (16+ km)
Ceiling: at least 12,000 feet AGL
Clouds: sky clear below 12,000 feet AGL
Weather: automated observation with no human augmentation;
there may or may not be significant weather present at this time

METAR text: KC09 301455Z AUTO 18003KT 10SM CLR 14/09 A3034 RMK AO2 T01390089
Conditions at: KC09 (MORRIS-WASHBURN , IL, US) observed 1455 UTC 30 September 2022
Temperature: 13.9°C (57°F)
Dewpoint: 8.9°C (48°F) [RH = 72%]
Pressure (altimeter): 30.34 inches Hg (1027.5 mb)
Winds: from the S (180 degrees) at 3 MPH (3 knots; 1.5 m/s)
Visibility: 10 or more miles (16+ km)
Ceiling: at least 12,000 feet AGL
Clouds: sky clear below 12,000 feet AGL
Weather: automated observation with no human augmentation;
there may or may not be significant weather present at this time

METAR text: KC09 301435Z AUTO 00000KT 10SM CLR 13/10 A3034 RMK AO2 T01280095
Conditions at: KC09 (MORRIS-WASHBURN , IL, US) observed 1435 UTC 30 September 2022
Temperature: 12.8°C (55°F)
Dewpoint: 9.5°C (49°F) [RH = 80%]
Pressure (altimeter): 30.34 inches Hg (1027.5 mb)
Winds: calm
Visibility: 10 or more miles (16+ km)
Ceiling: at least 12,000 feet AGL
Clouds: sky clear below 12,000 feet AGL
Weather: automated observation with no human augmentation;
there may or may not be significant weather present at this time